createdAt,value
2022-08-09T00:00:00.135Z,1.83
2022-08-09T00:02:28.290Z,2.00
2022-08-09T00:05:03.664Z,1.90
2022-08-09T00:07:44.946Z,1.73
2022-08-09T00:10:21.083Z,1.83
2022-08-09T00:12:52.427Z,1.80
2022-08-09T00:15:20.467Z,2.00
2022-08-09T00:18:05.442Z,1.60
2022-08-09T00:20:41.516Z,1.63
2022-08-09T00:23:57.830Z,1.80
2022-08-09T00:25:56.789Z,1.97
2022-08-09T00:28:26.524Z,1.63
2022-08-09T00:30:57.019Z,2.00
2022-08-09T00:33:48.845Z,1.87
2022-08-09T00:36:11.654Z,1.63
2022-08-09T00:38:39.500Z,1.70
2022-08-09T00:41:09.269Z,1.87
2022-08-09T00:44:19.478Z,1.90
2022-08-09T00:46:56.549Z,1.90
2022-08-09T00:49:28.836Z,1.90
2022-08-09T00:52:04.999Z,2.07
2022-08-09T00:54:36.263Z,2.00
2022-08-09T00:57:08.670Z,1.90
2022-08-09T00:59:41.551Z,2.20
2022-08-09T01:02:16.329Z,2.10
2022-08-09T01:04:51.885Z,2.07
2022-08-09T01:07:38.051Z,2.00
2022-08-09T01:10:25.913Z,2.10
2022-08-09T01:13:09.148Z,1.80
2022-08-09T01:15:51.636Z,1.93
2022-08-09T01:18:29.925Z,1.73
2022-08-09T01:21:06.784Z,1.83
2022-08-09T01:24:03.107Z,1.90
2022-08-09T01:26:46.274Z,1.87
2022-08-09T01:29:22.922Z,1.63
2022-08-09T01:32:29.899Z,1.80
2022-08-09T01:34:44.491Z,1.83
2022-08-09T01:37:13.827Z,1.90
2022-08-09T01:39:42.159Z,1.90
2022-08-09T01:42:11.212Z,2.00
2022-08-09T01:44:41.244Z,1.87
2022-08-09T01:47:11.771Z,2.00
2022-08-09T01:49:39.909Z,1.97
2022-08-09T01:52:09.899Z,1.77
2022-08-09T01:54:39.015Z,2.10
2022-08-09T01:57:11.518Z,1.90
2022-08-09T01:59:51.442Z,1.90
2022-08-09T02:02:20.904Z,1.90
2022-08-09T02:04:50.501Z,2.20
2022-08-09T02:08:35.832Z,2.00
2022-08-09T02:10:09.917Z,2.10
2022-08-09T02:12:39.320Z,2.20
2022-08-09T02:15:08.412Z,1.90
2022-08-09T02:18:01.445Z,2.17
2022-08-09T02:20:32.954Z,1.93
2022-08-09T02:23:04.047Z,2.17
2022-08-09T02:25:41.915Z,2.03
2022-08-09T02:28:18.051Z,1.90
2022-08-09T02:30:47.273Z,2.00
2022-08-09T02:33:16.978Z,2.03
2022-08-09T02:36:02.134Z,2.07
2022-08-09T02:38:36.390Z,2.27
2022-08-09T02:41:11.147Z,2.07
2022-08-09T02:43:47.756Z,2.07
2022-08-09T02:46:23.852Z,2.40
2022-08-09T02:48:51.893Z,2.13
2022-08-09T02:51:22.280Z,2.23
2022-08-09T02:54:00.804Z,2.23
2022-08-09T02:56:29.149Z,2.13
2022-08-09T02:58:56.841Z,1.90
2022-08-09T03:01:29.568Z,1.83
2022-08-09T03:04:17.159Z,2.00
2022-08-09T03:06:48.806Z,2.43
2022-08-09T03:09:17.210Z,2.20
2022-08-09T03:12:08.444Z,2.17
2022-08-09T03:14:32.407Z,2.10
2022-08-09T03:17:01.466Z,2.20
2022-08-09T03:19:52.607Z,2.10
2022-08-09T03:22:25.089Z,2.10
2022-08-09T03:25:05.715Z,1.83
2022-08-09T03:27:44.981Z,2.10
2022-08-09T03:30:13.460Z,2.20
2022-08-09T03:32:41.587Z,2.30
2022-08-09T03:35:14.956Z,2.40
2022-08-09T03:37:56.205Z,2.17
2022-08-09T03:40:24.510Z,2.23
2022-08-09T03:42:51.921Z,2.00
2022-08-09T03:46:13.546Z,2.10
2022-08-09T03:48:06.522Z,2.20
2022-08-09T03:50:36.262Z,2.50
2022-08-09T03:53:05.180Z,2.20
2022-08-09T03:55:35.922Z,2.40
2022-08-09T03:58:14.988Z,2.10
2022-08-09T04:00:45.339Z,2.30
2022-08-09T04:03:24.863Z,2.30
2022-08-09T04:06:00.160Z,2.30
2022-08-09T04:08:31.641Z,2.17
2022-08-09T04:11:01.353Z,2.37
2022-08-09T04:13:44.878Z,2.30
2022-08-09T04:16:19.609Z,2.30
2022-08-09T04:18:49.222Z,2.30
2022-08-09T04:21:18.958Z,2.37
2022-08-09T04:23:53.860Z,2.30
2022-08-09T04:26:23.438Z,2.20
2022-08-09T04:28:50.783Z,2.30
2022-08-09T04:31:18.122Z,2.30
2022-08-09T04:33:56.613Z,2.20
2022-08-09T04:36:25.635Z,2.30
2022-08-09T04:38:53.775Z,2.30
2022-08-09T04:41:23.911Z,2.63
2022-08-09T04:44:05.767Z,2.67
2022-08-09T04:46:56.833Z,2.50
2022-08-09T04:49:40.086Z,2.53
2022-08-09T04:52:11.959Z,2.30
2022-08-09T04:54:48.134Z,2.97
2022-08-09T04:57:15.346Z,2.30
2022-08-09T04:59:50.295Z,2.70
2022-08-09T05:02:17.513Z,3.30
2022-08-09T05:04:47.243Z,3.10
2022-08-09T05:07:19.404Z,3.20
2022-08-09T05:09:49.844Z,3.30
2022-08-09T05:12:17.245Z,3.57
2022-08-09T05:14:44.450Z,3.60
2022-08-09T05:18:36.795Z,3.43
2022-08-09T05:19:59.264Z,4.07
2022-08-09T05:22:35.696Z,3.80
2022-08-09T05:25:15.049Z,3.80
2022-08-09T05:27:45.369Z,3.80
2022-08-09T05:30:14.306Z,3.53
2022-08-09T05:32:42.044Z,3.43
2022-08-09T05:35:11.403Z,3.47
2022-08-09T05:37:49.996Z,3.10
2022-08-09T05:40:18.243Z,2.80
2022-08-09T05:42:46.071Z,3.00
2022-08-09T05:45:14.503Z,2.83
2022-08-09T05:47:51.628Z,2.77
2022-08-09T05:50:36.157Z,2.97
2022-08-09T05:53:11.753Z,3.03
2022-08-09T05:55:50.713Z,3.00
2022-08-09T05:58:20.421Z,2.93
2022-08-09T06:00:48.528Z,2.93
2022-08-09T06:03:20.038Z,2.80
2022-08-09T06:05:57.168Z,3.20
2022-08-09T06:08:32.258Z,2.83
2022-08-09T06:10:59.446Z,3.07
2022-08-09T06:13:28.685Z,2.70
2022-08-09T06:16:01.552Z,2.90
2022-08-09T06:18:32.354Z,2.77
2022-08-09T06:20:59.779Z,3.00
2022-08-09T06:23:57.995Z,3.07
2022-08-09T06:26:21.177Z,2.53
2022-08-09T06:28:50.241Z,2.97
2022-08-09T06:31:30.786Z,2.97
2022-08-09T06:34:06.505Z,2.80
2022-08-09T06:36:34.537Z,2.80
2022-08-09T06:39:02.369Z,2.80
2022-08-09T06:42:07.705Z,3.07
2022-08-09T06:44:23.080Z,2.70
2022-08-09T06:46:55.478Z,2.60
2022-08-09T06:49:44.820Z,2.80
2022-08-09T06:52:10.406Z,2.80
2022-08-09T06:54:39.289Z,2.90
2022-08-09T06:57:08.823Z,2.67
2022-08-09T07:00:51.630Z,2.53
2022-08-09T07:02:29.412Z,2.83
2022-08-09T07:04:59.810Z,2.50
2022-08-09T07:07:58.707Z,2.80
2022-08-09T07:10:29.608Z,2.77
2022-08-09T07:12:59.432Z,2.80
2022-08-09T07:16:38.627Z,2.67
2022-08-09T07:18:14.996Z,2.70
2022-08-09T07:20:43.804Z,2.27
2022-08-09T07:23:18.197Z,2.50
2022-08-09T07:25:46.492Z,2.67
2022-08-09T07:28:19.256Z,2.50
2022-08-09T07:30:54.117Z,2.70
2022-08-09T07:33:22.436Z,2.43
2022-08-09T07:35:54.253Z,2.70
2022-08-09T07:38:23.451Z,3.00
2022-08-09T07:41:11.054Z,2.43
2022-08-09T07:43:41.483Z,2.50
2022-08-09T07:46:19.218Z,2.73
2022-08-09T07:48:58.888Z,2.53
2022-08-09T07:52:04.647Z,2.47
2022-08-09T07:54:14.164Z,2.40
2022-08-09T07:56:49.349Z,2.30
2022-08-09T07:59:25.116Z,2.10
2022-08-09T08:02:01.268Z,1.93
2022-08-09T08:04:31.507Z,1.90
2022-08-09T08:07:09.404Z,1.93
2022-08-09T08:09:53.575Z,1.90
2022-08-09T08:12:29.368Z,1.53
2022-08-09T08:14:58.493Z,1.60
2022-08-09T08:17:51.918Z,1.40
2022-08-09T08:20:14.050Z,1.57
2022-08-09T08:22:41.952Z,1.43
2022-08-09T08:25:13.476Z,1.60
2022-08-09T08:27:42.984Z,1.40
2022-08-09T08:30:11.328Z,1.60
2022-08-09T08:32:52.223Z,1.50
2022-08-09T08:35:22.203Z,1.50
2022-08-09T08:38:00.061Z,1.30
2022-08-09T08:40:32.971Z,1.27
2022-08-09T08:43:01.061Z,1.43
2022-08-09T08:45:37.717Z,1.43
2022-08-09T08:48:05.993Z,1.27
2022-08-09T08:50:33.197Z,1.50
2022-08-09T08:53:02.482Z,1.80
2022-08-09T08:55:32.324Z,1.40
2022-08-09T08:57:59.588Z,1.40
2022-08-09T09:00:34.362Z,1.42
2022-08-09T09:03:11.485Z,1.80
2022-08-09T09:06:01.116Z,1.40
2022-08-09T09:08:37.966Z,1.48
2022-08-09T09:11:17.156Z,1.90
2022-08-09T09:13:57.621Z,1.83
2022-08-09T09:16:34.234Z,1.70
2022-08-09T09:19:22.734Z,1.52
2022-08-09T09:22:00.630Z,1.50
2022-08-09T09:24:31.362Z,1.80
2022-08-09T09:27:01.641Z,1.58
2022-08-09T09:30:08.755Z,1.80
2022-08-09T09:32:34.616Z,1.60
2022-08-09T09:35:15.835Z,1.52
2022-08-09T09:37:46.354Z,1.30
2022-08-09T09:40:13.581Z,1.30
2022-08-09T09:42:55.389Z,1.50
2022-08-09T09:45:26.864Z,1.50
2022-08-09T09:47:58.772Z,1.50
2022-08-09T09:50:50.889Z,1.67
2022-08-09T09:53:20.898Z,1.50
2022-08-09T09:55:57.587Z,1.40
2022-08-09T09:58:25.689Z,1.50
2022-08-09T10:00:59.108Z,1.50
2022-08-09T10:03:39.678Z,1.40
2022-08-09T10:06:07.194Z,1.47
2022-08-09T10:08:43.242Z,1.70
2022-08-09T10:12:00.703Z,1.70
2022-08-09T10:14:31.003Z,1.63
2022-08-09T10:17:17.184Z,1.73
2022-08-09T10:19:52.983Z,1.87
2022-08-09T10:22:50.662Z,1.60
2022-08-09T10:25:21.048Z,1.60
2022-08-09T10:27:57.803Z,1.60
2022-08-09T10:34:05.236Z,1.60
2022-08-09T10:36:02.307Z,1.90
2022-08-09T10:38:54.491Z,1.60
2022-08-09T10:41:20.663Z,1.50
2022-08-09T10:43:59.210Z,2.10
2022-08-09T10:46:27.307Z,1.80
2022-08-09T10:49:01.734Z,1.70
2022-08-09T10:51:41.229Z,1.73
2022-08-09T10:54:13.119Z,1.50
2022-08-09T10:56:41.041Z,1.50
2022-08-09T10:59:30.740Z,1.73
2022-08-09T11:03:06.805Z,1.57
2022-08-09T11:05:06.418Z,1.70
2022-08-09T11:07:57.296Z,1.70
2022-08-09T11:10:53.329Z,1.60
2022-08-09T11:13:50.826Z,1.63
2022-08-09T11:16:34.788Z,1.53
2022-08-09T11:19:09.918Z,1.50
2022-08-09T11:21:55.196Z,1.60
2022-08-09T11:24:25.765Z,1.60
2022-08-09T11:26:57.299Z,1.70
2022-08-09T11:30:05.768Z,1.80
2022-08-09T11:32:49.396Z,1.77
2022-08-09T11:35:26.318Z,1.70
2022-08-09T11:38:18.322Z,1.50
2022-08-09T11:40:45.647Z,1.50
2022-08-09T11:43:17.197Z,1.70
2022-08-09T11:46:04.854Z,1.60
2022-08-09T11:48:33.402Z,1.63
2022-08-09T11:52:56.708Z,1.40
2022-08-09T11:54:13.800Z,1.30
2022-08-09T11:56:48.235Z,1.50
2022-08-09T11:59:30.327Z,1.43
2022-08-09T12:02:34.234Z,1.40
2022-08-09T12:04:58.693Z,1.43
2022-08-09T12:07:34.500Z,1.40
2022-08-09T12:10:14.008Z,1.50
2022-08-09T12:12:57.864Z,1.43
2022-08-09T12:15:48.773Z,1.60
2022-08-09T12:18:29.753Z,1.37
2022-08-09T12:21:00.648Z,1.80
2022-08-09T12:23:56.618Z,1.53
2022-08-09T12:26:25.298Z,1.90
2022-08-09T12:29:13.478Z,1.90
2022-08-09T12:31:59.434Z,1.77
2022-08-09T12:34:32.546Z,1.70
2022-08-09T12:37:21.447Z,1.70
2022-08-09T12:40:06.326Z,1.90
2022-08-09T12:42:33.956Z,1.73
2022-08-09T12:45:01.576Z,1.63
2022-08-09T12:47:37.604Z,1.97
2022-08-09T12:50:17.264Z,1.57
2022-08-09T12:53:08.934Z,1.67
2022-08-09T12:56:11.639Z,1.53
2022-08-09T12:58:24.224Z,1.60
2022-08-09T13:00:55.537Z,1.60
2022-08-09T13:03:58.978Z,1.73
2022-08-09T13:06:46.313Z,1.40
2022-08-09T13:09:19.698Z,1.30
2022-08-09T13:11:49.721Z,1.50
2022-08-09T13:14:42.652Z,1.50
2022-08-09T13:17:16.035Z,1.60
2022-08-09T13:20:10.125Z,2.00
2022-08-09T13:24:05.644Z,1.97
2022-08-09T13:25:53.425Z,1.93
2022-08-09T13:28:33.848Z,2.00
2022-08-09T13:32:12.594Z,1.80
2022-08-09T13:33:57.619Z,2.03
2022-08-09T13:36:41.178Z,2.03
2022-08-09T13:41:17.596Z,1.87
2022-08-09T13:42:02.718Z,2.13
2022-08-09T13:44:30.587Z,2.10
2022-08-09T13:47:29.049Z,2.20
2022-08-09T13:49:56.152Z,2.00
2022-08-09T13:52:24.647Z,1.73
2022-08-09T13:55:00.529Z,1.80
2022-08-09T13:57:36.507Z,1.80
2022-08-09T14:00:08.042Z,2.13
2022-08-09T14:02:36.361Z,1.97
2022-08-09T14:05:12.284Z,1.70
2022-08-09T14:08:01.555Z,2.13
2022-08-09T14:10:46.592Z,1.80
2022-08-09T14:13:28.035Z,2.20
2022-08-09T14:16:06.794Z,2.00
2022-08-09T14:18:37.892Z,1.90
2022-08-09T14:21:05.986Z,1.90
2022-08-09T14:23:41.044Z,1.97
2022-08-09T14:26:21.343Z,1.80
2022-08-09T14:28:48.494Z,1.90
2022-08-09T14:31:15.691Z,2.00
2022-08-09T14:33:42.833Z,1.93
2022-08-09T14:36:20.281Z,1.93
2022-08-09T14:38:52.530Z,2.07
2022-08-09T14:41:34.917Z,1.93
2022-08-09T14:44:11.157Z,1.97
2022-08-09T14:47:00.905Z,2.07
2022-08-09T14:49:26.294Z,2.00
2022-08-09T14:51:58.796Z,2.03
2022-08-09T14:54:27.559Z,1.77
2022-08-09T14:56:58.087Z,1.93
2022-08-09T14:59:27.181Z,2.00
2022-08-09T15:01:55.601Z,2.10
2022-08-09T15:04:23.437Z,1.80
2022-08-09T15:06:51.710Z,2.10
2022-08-09T15:10:03.314Z,1.73
2022-08-09T15:12:08.186Z,1.90
2022-08-09T15:14:38.599Z,2.03
2022-08-09T15:17:09.257Z,2.30
2022-08-09T15:19:36.916Z,2.03
2022-08-09T15:22:22.027Z,1.90
2022-08-09T15:24:53.257Z,2.00
2022-08-09T15:27:20.395Z,1.83
2022-08-09T15:30:55.521Z,2.10
2022-08-09T15:32:34.672Z,1.97
2022-08-09T15:35:01.882Z,1.80
2022-08-09T15:37:56.221Z,1.87
2022-08-09T15:40:34.401Z,2.00
2022-08-09T15:43:01.900Z,2.23
2022-08-09T15:45:30.156Z,2.00
2022-08-09T15:48:06.560Z,2.00
2022-08-09T15:50:44.010Z,1.90
2022-08-09T15:53:17.772Z,1.77
2022-08-09T15:56:10.965Z,2.10
2022-08-09T15:58:34.138Z,1.83
2022-08-09T16:01:01.820Z,2.07
2022-08-09T16:03:38.108Z,1.90
2022-08-09T16:06:06.746Z,2.00
2022-08-09T16:08:44.556Z,1.77
2022-08-09T16:11:16.776Z,2.03
2022-08-09T16:14:03.575Z,1.90
2022-08-09T16:16:31.654Z,1.87
2022-08-09T16:18:59.399Z,1.90
2022-08-09T16:21:26.600Z,2.20
2022-08-09T16:24:02.250Z,2.03
2022-08-09T16:26:33.527Z,2.00
2022-08-09T16:29:10.451Z,2.00
2022-08-09T16:32:18.883Z,1.90
2022-08-09T16:34:26.811Z,1.90
2022-08-09T16:36:56.321Z,1.90
2022-08-09T16:39:26.017Z,1.90
2022-08-09T16:42:02.455Z,2.10
2022-08-09T16:44:32.155Z,2.00
2022-08-09T16:47:04.128Z,2.00
2022-08-09T16:50:30.042Z,2.10
2022-08-09T16:52:34.769Z,2.00
2022-08-09T16:55:02.551Z,2.17
2022-08-09T16:58:08.970Z,2.10
2022-08-09T17:00:17.143Z,2.00
2022-08-09T17:02:46.337Z,2.00
2022-08-09T17:05:14.269Z,1.77
2022-08-09T17:08:44.644Z,1.90
2022-08-09T17:10:34.523Z,2.10
2022-08-09T17:13:06.307Z,1.90
2022-08-09T17:16:00.455Z,1.93
2022-08-09T17:18:26.917Z,1.87
2022-08-09T17:20:57.392Z,1.77
2022-08-09T17:24:21.002Z,1.90
2022-08-09T17:26:12.348Z,1.90
2022-08-09T17:28:40.202Z,1.97
2022-08-09T17:31:07.420Z,2.00
2022-08-09T17:33:36.034Z,1.97
2022-08-09T17:36:05.383Z,2.00
2022-08-09T17:38:39.570Z,2.00
2022-08-09T17:41:08.428Z,2.23
2022-08-09T17:43:37.211Z,1.90
2022-08-09T17:46:07.584Z,2.20
2022-08-09T17:48:39.391Z,2.20
2022-08-09T17:51:19.414Z,1.80
2022-08-09T17:53:51.679Z,2.30
2022-08-09T17:56:21.533Z,2.30
2022-08-09T17:58:48.691Z,2.10
2022-08-09T18:01:22.923Z,2.10
2022-08-09T18:03:52.444Z,2.03
2022-08-09T18:06:32.230Z,2.20
2022-08-09T18:09:00.334Z,2.00
2022-08-09T18:11:27.460Z,1.97
2022-08-09T18:13:58.825Z,2.00
2022-08-09T18:16:30.359Z,2.23
2022-08-09T18:18:59.482Z,2.37
2022-08-09T18:21:31.807Z,2.10
2022-08-09T18:24:14.638Z,2.20
2022-08-09T18:26:45.901Z,2.00
2022-08-09T18:30:38.341Z,2.47
2022-08-09T18:32:03.007Z,4.30
2022-08-09T18:34:32.884Z,2.80
2022-08-09T18:37:00.029Z,2.60
2022-08-09T18:39:32.552Z,2.40
2022-08-09T18:42:01.733Z,2.47
2022-08-09T18:44:29.066Z,2.20
2022-08-09T18:47:07.947Z,2.50
2022-08-09T18:49:41.766Z,2.40
2022-08-09T18:52:11.849Z,2.80
2022-08-09T18:54:39.418Z,3.20
2022-08-09T18:57:17.075Z,4.00
2022-08-09T18:59:51.208Z,2.80
2022-08-09T19:02:28.806Z,3.53
2022-08-09T19:05:04.127Z,2.70
2022-08-09T19:07:59.227Z,2.40
2022-08-09T19:10:29.416Z,2.40
2022-08-09T19:13:20.806Z,2.23
2022-08-09T19:15:51.053Z,2.13
2022-08-09T19:18:34.262Z,2.27
2022-08-09T19:21:10.431Z,2.40
2022-08-09T19:24:37.439Z,2.70
2022-08-09T19:26:29.136Z,2.40
2022-08-09T19:29:01.509Z,2.37
2022-08-09T19:31:30.408Z,2.30
2022-08-09T19:34:21.566Z,2.43
2022-08-09T19:36:50.809Z,2.60
2022-08-09T19:39:18.028Z,2.20
2022-08-09T19:41:48.783Z,2.37
2022-08-09T19:44:20.737Z,2.27
2022-08-09T19:46:50.692Z,2.40
2022-08-09T19:50:10.432Z,2.30
2022-08-09T19:52:08.330Z,2.60
2022-08-09T19:54:35.584Z,2.43
2022-08-09T19:57:02.996Z,2.57
2022-08-09T19:59:57.862Z,2.43
2022-08-09T20:04:07.558Z,2.37
2022-08-09T20:05:10.294Z,2.50
2022-08-09T20:07:58.600Z,2.67
2022-08-09T20:10:34.419Z,2.23
2022-08-09T20:13:04.857Z,2.27
2022-08-09T20:16:39.308Z,2.50
2022-08-09T20:18:20.124Z,2.20
2022-08-09T20:20:50.416Z,2.20
2022-08-09T20:23:21.181Z,2.53
2022-08-09T20:25:53.316Z,2.60
2022-08-09T20:28:27.624Z,2.27
2022-08-09T20:31:02.849Z,2.33
2022-08-09T20:33:39.272Z,2.20
2022-08-09T20:36:08.938Z,2.27
2022-08-09T20:38:57.433Z,2.60
2022-08-09T20:41:29.216Z,2.17
2022-08-09T20:44:02.258Z,2.53
2022-08-09T20:46:41.757Z,2.40
2022-08-09T20:49:10.309Z,2.40
2022-08-09T20:51:41.481Z,2.57
2022-08-09T20:54:12.691Z,2.17
2022-08-09T20:56:47.010Z,2.40
2022-08-09T20:59:17.077Z,2.27
2022-08-09T21:01:50.426Z,2.30
2022-08-09T21:05:51.339Z,2.37
2022-08-09T21:07:12.226Z,2.40
2022-08-09T21:09:55.815Z,2.30
2022-08-09T21:15:13.491Z,2.67
2022-08-09T21:18:22.167Z,2.60
2022-08-09T21:20:29.998Z,2.33
2022-08-09T21:22:58.034Z,2.80
2022-08-09T21:25:55.575Z,2.43
2022-08-09T21:28:33.552Z,2.70
2022-08-09T21:31:18.181Z,2.57
2022-08-09T21:33:52.819Z,2.57
2022-08-09T21:36:27.848Z,2.40
2022-08-09T21:38:57.977Z,2.40
2022-08-09T21:42:04.631Z,2.73
2022-08-09T21:44:15.368Z,2.30
2022-08-09T21:47:00.858Z,2.70
2022-08-09T21:49:28.915Z,2.43
2022-08-09T21:52:08.006Z,2.53
2022-08-09T21:54:43.395Z,2.70
2022-08-09T21:57:37.801Z,2.40
2022-08-09T22:00:00.666Z,2.40
2022-08-09T22:02:35.948Z,2.53
2022-08-09T22:05:17.069Z,2.50
2022-08-09T22:07:52.976Z,2.60
2022-08-09T22:10:22.191Z,2.73
2022-08-09T22:12:50.705Z,2.50
2022-08-09T22:15:20.648Z,2.50
2022-08-09T22:17:50.421Z,2.50
2022-08-09T22:20:21.826Z,2.40
2022-08-09T22:22:54.689Z,2.80
2022-08-09T22:26:12.159Z,2.70
2022-08-09T22:28:09.105Z,2.37
2022-08-09T22:30:36.698Z,2.53
2022-08-09T22:33:09.498Z,2.40
2022-08-09T22:36:03.202Z,2.60
2022-08-09T22:38:24.223Z,2.60
2022-08-09T22:40:57.830Z,2.50
2022-08-09T22:44:00.623Z,2.70
2022-08-09T22:48:10.455Z,2.70
2022-08-09T22:49:09.532Z,2.67
2022-08-09T22:51:38.291Z,2.53
2022-08-09T22:54:08.020Z,2.90
2022-08-09T22:56:38.214Z,2.80
2022-08-09T22:59:55.259Z,2.60
2022-08-09T23:01:56.235Z,2.50
2022-08-09T23:04:25.426Z,2.70
2022-08-09T23:07:13.835Z,2.83
2022-08-09T23:09:41.388Z,2.90
2022-08-09T23:12:08.551Z,2.70
2022-08-09T23:14:41.518Z,2.90
2022-08-09T23:17:09.593Z,2.60
2022-08-09T23:20:06.567Z,2.63
2022-08-09T23:22:23.973Z,2.60
2022-08-09T23:24:51.143Z,3.00
2022-08-09T23:27:18.358Z,2.90
2022-08-09T23:29:46.452Z,2.80
2022-08-09T23:32:13.680Z,2.80
2022-08-09T23:34:40.890Z,2.57
2022-08-09T23:37:08.087Z,2.33
2022-08-09T23:39:35.312Z,2.47
2022-08-09T23:42:02.487Z,2.70
2022-08-09T23:44:29.643Z,2.50
2022-08-09T23:46:57.675Z,2.80
2022-08-09T23:49:25.617Z,2.67
2022-08-09T23:51:53.319Z,2.80
2022-08-09T23:54:26.488Z,2.60
2022-08-09T23:56:56.359Z,2.70
2022-08-09T23:59:25.750Z,2.70
